createdAt,value
2018-05-01T00:00:51.394Z,1.00
2018-05-01T00:01:51.400Z,0.90
2018-05-01T00:02:51.418Z,1.10
2018-05-01T00:03:51.429Z,1.20
2018-05-01T00:04:51.448Z,1.20
2018-05-01T00:05:51.459Z,1.20
2018-05-01T00:06:51.476Z,1.20
2018-05-01T00:07:51.580Z,1.20
2018-05-01T00:08:51.505Z,1.20
2018-05-01T00:09:51.518Z,1.30
2018-05-01T00:10:51.531Z,1.20
2018-05-01T00:11:51.541Z,1.30
2018-05-01T00:12:51.557Z,1.20
2018-05-01T00:13:51.573Z,1.10
2018-05-01T00:14:51.585Z,1.20
2018-05-01T00:15:51.600Z,1.20
2018-05-01T00:16:51.614Z,1.20
2018-05-01T00:17:51.626Z,1.20
2018-05-01T00:18:51.641Z,1.40
2018-05-01T00:19:51.665Z,1.30
2018-05-01T00:20:51.668Z,1.40
2018-05-01T00:21:51.683Z,1.10
2018-05-01T00:22:51.696Z,1.20
2018-05-01T00:23:51.724Z,1.40
2018-05-01T00:24:51.727Z,1.30
2018-05-01T00:25:51.739Z,1.30
2018-05-01T00:26:51.760Z,1.40
2018-05-01T00:27:51.766Z,1.30
2018-05-01T00:28:51.809Z,1.50
2018-05-01T00:29:51.793Z,1.40
2018-05-01T00:30:51.810Z,1.50
2018-05-01T00:31:51.826Z,1.30
2018-05-01T00:32:51.841Z,1.50
2018-05-01T00:33:51.853Z,1.60
2018-05-01T00:34:51.864Z,1.50
2018-05-01T00:35:51.876Z,1.50
2018-05-01T00:36:51.894Z,1.50
2018-05-01T00:37:51.905Z,1.70
2018-05-01T00:38:51.922Z,1.60
2018-05-01T00:39:51.939Z,1.70
2018-05-01T00:40:51.946Z,1.80
2018-05-01T00:41:51.969Z,1.50
2018-05-01T00:42:51.989Z,1.50
2018-05-01T00:43:51.992Z,1.40
2018-05-01T00:44:52.005Z,1.50
2018-05-01T00:45:52.016Z,1.60
2018-05-01T00:46:52.031Z,1.50
2018-05-01T00:47:52.050Z,1.40
2018-05-01T00:48:52.059Z,1.60
2018-05-01T00:49:52.078Z,1.30
2018-05-01T00:50:52.085Z,1.50
2018-05-01T00:51:52.102Z,1.40
2018-05-01T00:52:52.111Z,1.20
2018-05-01T00:53:52.129Z,1.60
2018-05-01T00:54:52.141Z,1.30
2018-05-01T00:55:52.153Z,1.10
2018-05-01T00:56:52.174Z,1.40
2018-05-01T00:57:52.196Z,1.10
2018-05-01T00:58:52.199Z,1.20
2018-05-01T00:59:52.215Z,1.20
2018-05-01T01:00:52.227Z,1.30
2018-05-01T01:01:52.243Z,1.30
2018-05-01T01:02:52.304Z,1.30
2018-05-01T01:03:52.267Z,1.20
2018-05-01T01:04:52.280Z,1.10
2018-05-01T01:05:52.298Z,1.20
2018-05-01T01:06:52.308Z,1.20
2018-05-01T01:07:52.318Z,1.20
2018-05-01T01:08:52.339Z,1.10
2018-05-01T01:09:52.345Z,1.20
2018-05-01T01:10:52.375Z,1.30
2018-05-01T01:11:52.373Z,1.20
2018-05-01T01:12:52.390Z,1.20
2018-05-01T01:13:52.399Z,1.30
2018-05-01T01:14:52.416Z,1.00
2018-05-01T01:15:52.429Z,1.20
2018-05-01T01:16:52.443Z,1.00
2018-05-01T01:17:52.461Z,1.10
2018-05-01T01:18:52.474Z,1.00
2018-05-01T01:19:52.485Z,1.20
2018-05-01T01:20:52.496Z,1.20
2018-05-01T01:21:52.512Z,1.10
2018-05-01T01:22:52.523Z,1.20
2018-05-01T01:23:52.540Z,1.30
2018-05-01T01:24:52.553Z,1.20
2018-05-01T01:25:52.568Z,1.20
2018-05-01T01:26:52.580Z,1.10
2018-05-01T01:27:52.592Z,1.20
2018-05-01T01:28:52.608Z,1.50
2018-05-01T01:29:52.629Z,1.30
2018-05-01T01:30:52.632Z,1.50
2018-05-01T01:31:52.650Z,1.20
2018-05-01T01:32:52.660Z,1.20
2018-05-01T01:33:52.675Z,1.10
2018-05-01T01:34:52.703Z,1.20
2018-05-01T01:36:52.817Z,1.20
2018-05-01T01:37:52.729Z,1.10
2018-05-01T01:38:52.741Z,1.30
2018-05-01T01:39:52.756Z,1.20
2018-05-01T01:40:52.769Z,1.40
2018-05-01T01:41:52.782Z,1.40
2018-05-01T01:42:52.803Z,1.40
2018-05-01T01:43:52.811Z,1.20
2018-05-01T01:44:52.827Z,1.20
2018-05-01T01:45:52.836Z,1.30
2018-05-01T01:46:52.843Z,1.40
2018-05-01T01:47:52.857Z,1.40
2018-05-01T01:48:52.873Z,1.30
2018-05-01T01:49:52.885Z,1.00
2018-05-01T01:50:52.901Z,1.20
2018-05-01T01:51:52.913Z,1.30
2018-05-01T01:52:52.925Z,1.20
2018-05-01T01:53:52.939Z,1.30
2018-05-01T01:54:52.951Z,1.30
2018-05-01T01:55:52.965Z,1.40
2018-05-01T01:56:52.981Z,1.30
2018-05-01T01:57:52.995Z,1.50
2018-05-01T01:58:53.011Z,1.50
2018-05-01T01:59:53.019Z,1.40
2018-05-01T02:00:53.034Z,1.30
2018-05-01T02:01:53.052Z,1.30
2018-05-01T02:02:53.061Z,1.20
2018-05-01T02:03:53.077Z,1.20
2018-05-01T02:04:53.086Z,1.10
2018-05-01T02:05:53.104Z,1.20
2018-05-01T02:06:53.113Z,1.40
2018-05-01T02:07:53.129Z,1.30
2018-05-01T02:08:53.235Z,1.30
2018-05-01T02:09:53.160Z,1.20
2018-05-01T02:10:53.168Z,1.30
2018-05-01T02:11:53.185Z,1.10
2018-05-01T02:12:53.194Z,1.30
2018-05-01T02:13:53.213Z,1.20
2018-05-01T02:14:53.230Z,1.10
2018-05-01T02:15:53.237Z,1.00
2018-05-01T02:16:53.248Z,1.40
2018-05-01T02:17:53.263Z,1.20
2018-05-01T02:18:53.281Z,1.20
2018-05-01T02:19:53.290Z,1.30
2018-05-01T02:20:53.302Z,1.20
2018-05-01T02:21:53.325Z,1.20
2018-05-01T02:22:53.331Z,1.30
2018-05-01T02:23:53.345Z,1.10
2018-05-01T02:24:53.356Z,1.30
2018-05-01T02:25:53.371Z,1.30
2018-05-01T02:26:53.392Z,1.50
2018-05-01T02:27:53.397Z,1.30
2018-05-01T02:28:53.414Z,1.20
2018-05-01T02:29:53.428Z,1.40
2018-05-01T02:30:53.440Z,1.60
2018-05-01T02:31:53.452Z,1.40
2018-05-01T02:32:53.464Z,1.40
2018-05-01T02:33:53.482Z,1.40
2018-05-01T02:34:53.520Z,1.20
2018-05-01T02:35:53.511Z,1.50
2018-05-01T02:36:53.520Z,1.40
2018-05-01T02:37:53.536Z,1.50
2018-05-01T02:38:53.554Z,1.50
2018-05-01T02:39:53.563Z,1.70
2018-05-01T02:40:53.656Z,1.50
2018-05-01T02:41:53.591Z,1.40
2018-05-01T02:42:53.613Z,1.70
2018-05-01T02:43:53.611Z,1.60
2018-05-01T02:44:53.628Z,1.50
2018-05-01T02:45:53.644Z,1.40
2018-05-01T02:46:53.662Z,1.80
2018-05-01T02:47:53.666Z,1.50
2018-05-01T02:48:53.682Z,1.50
2018-05-01T02:49:53.692Z,1.50
2018-05-01T02:50:53.705Z,1.60
2018-05-01T02:51:53.726Z,1.60
2018-05-01T02:52:54.037Z,1.50
2018-05-01T02:53:53.744Z,1.70
2018-05-01T02:54:53.761Z,1.50
2018-05-01T02:55:53.779Z,1.40
2018-05-01T02:56:53.785Z,1.70
2018-05-01T02:57:53.805Z,1.70
2018-05-01T02:58:53.820Z,1.70
2018-05-01T02:59:53.824Z,1.70
2018-05-01T03:00:53.841Z,1.80
2018-05-01T03:01:53.852Z,2.00
2018-05-01T03:02:53.874Z,1.80
2018-05-01T03:03:53.885Z,1.80
2018-05-01T03:04:53.895Z,1.60
2018-05-01T03:05:53.912Z,1.60
2018-05-01T03:06:53.922Z,1.70
2018-05-01T03:07:53.931Z,1.80
2018-05-01T03:08:53.953Z,1.80
2018-05-01T03:09:54.158Z,1.60
2018-05-01T03:10:53.976Z,1.50
2018-05-01T03:11:53.985Z,1.70
2018-05-01T03:12:54.057Z,1.80
2018-05-01T03:13:54.056Z,1.80
2018-05-01T03:14:54.098Z,1.50
2018-05-01T03:15:54.041Z,1.40
2018-05-01T03:16:54.052Z,1.40
2018-05-01T03:17:54.065Z,1.60
2018-05-01T03:18:54.082Z,1.50
2018-05-01T03:19:54.099Z,1.40
2018-05-01T03:20:54.105Z,1.80
2018-05-01T03:21:54.121Z,1.90
2018-05-01T03:22:54.132Z,1.90
2018-05-01T03:23:54.143Z,1.80
2018-05-01T03:24:54.161Z,1.90
2018-05-01T03:25:54.183Z,1.80
2018-05-01T03:26:54.189Z,1.70
2018-05-01T03:27:54.202Z,1.60
2018-05-01T03:28:54.212Z,1.70
2018-05-01T03:29:54.242Z,1.80
2018-05-01T03:30:54.240Z,2.00
2018-05-01T03:31:54.252Z,1.80
2018-05-01T03:32:54.266Z,1.80
2018-05-01T03:33:54.278Z,1.80
2018-05-01T03:34:54.295Z,2.00
2018-05-01T03:35:54.308Z,1.80
2018-05-01T03:36:54.320Z,1.80
2018-05-01T03:37:54.333Z,2.00
2018-05-01T03:38:54.347Z,2.20
2018-05-01T03:39:54.357Z,2.00
2018-05-01T03:40:54.378Z,2.30
2018-05-01T03:41:54.383Z,1.90
2018-05-01T03:42:54.432Z,2.00
2018-05-01T03:43:54.412Z,1.80
2018-05-01T03:44:54.429Z,2.00
2018-05-01T03:45:54.647Z,1.80
2018-05-01T03:46:54.457Z,1.80
2018-05-01T03:47:54.467Z,1.90
2018-05-01T03:48:54.478Z,2.00
2018-05-01T03:49:54.493Z,1.90
2018-05-01T03:50:54.511Z,2.00
2018-05-01T03:51:54.518Z,2.00
2018-05-01T03:52:54.545Z,1.80
2018-05-01T03:53:54.546Z,1.90
2018-05-01T03:54:54.563Z,1.70
2018-05-01T03:55:54.580Z,1.90
2018-05-01T03:56:54.583Z,1.60
2018-05-01T03:57:54.605Z,1.70
2018-05-01T03:58:54.612Z,1.90
2018-05-01T03:59:54.625Z,2.10
2018-05-01T04:00:54.650Z,1.90
2018-05-01T04:01:54.652Z,2.00
2018-05-01T04:02:54.676Z,1.70
2018-05-01T04:03:54.677Z,1.90
2018-05-01T04:04:54.690Z,2.20
2018-05-01T04:05:54.706Z,2.10
2018-05-01T04:06:54.719Z,2.00
2018-05-01T04:07:54.736Z,2.10
2018-05-01T04:08:54.744Z,2.00
2018-05-01T04:09:54.759Z,2.10
2018-05-01T04:10:54.774Z,1.70
2018-05-01T04:11:54.788Z,2.00
2018-05-01T04:12:54.797Z,1.70
2018-05-01T04:13:54.818Z,1.90
2018-05-01T04:14:54.844Z,2.10
2018-05-01T04:15:54.843Z,2.00
2018-05-01T04:16:54.856Z,2.00
2018-05-01T04:17:54.864Z,2.30
2018-05-01T04:18:54.880Z,2.10
2018-05-01T04:19:54.889Z,2.20
2018-05-01T04:20:54.909Z,2.20
2018-05-01T04:21:54.915Z,2.20
2018-05-01T04:22:54.931Z,2.40
2018-05-01T04:23:54.942Z,1.90
2018-05-01T04:24:54.959Z,2.10
2018-05-01T04:25:54.975Z,3.00
2018-05-01T04:26:54.998Z,2.70
2018-05-01T04:27:54.998Z,2.20
2018-05-01T04:28:55.007Z,2.40
2018-05-01T04:29:55.027Z,2.60
2018-05-01T04:30:55.035Z,2.40
2018-05-01T04:31:55.046Z,2.10
2018-05-01T04:32:55.058Z,2.50
2018-05-01T04:33:55.073Z,2.20
2018-05-01T04:34:55.105Z,2.40
2018-05-01T04:35:55.103Z,2.50
2018-05-01T04:36:55.113Z,2.40
2018-05-01T04:37:55.126Z,2.80
2018-05-01T04:38:55.139Z,2.50
2018-05-01T04:39:55.154Z,2.30
2018-05-01T04:40:55.164Z,2.60
2018-05-01T04:41:55.178Z,2.80
2018-05-01T04:42:55.200Z,2.70
2018-05-01T04:43:55.213Z,3.10
2018-05-01T04:44:55.217Z,2.60
2018-05-01T04:45:55.233Z,2.70
2018-05-01T04:46:55.312Z,2.80
2018-05-01T04:47:55.254Z,2.60
2018-05-01T04:48:55.318Z,2.70
2018-05-01T04:49:55.283Z,2.70
2018-05-01T04:50:55.301Z,3.40
2018-05-01T04:51:55.308Z,3.00
2018-05-01T04:52:55.325Z,2.70
2018-05-01T04:53:55.335Z,3.00
2018-05-01T04:54:55.348Z,3.20
2018-05-01T04:55:55.360Z,2.90
2018-05-01T04:56:55.381Z,3.00
2018-05-01T04:57:55.385Z,3.20
2018-05-01T04:58:55.400Z,3.00
2018-05-01T04:59:55.411Z,2.90
2018-05-01T05:00:55.426Z,3.00
2018-05-01T05:01:55.439Z,2.80
2018-05-01T05:02:55.450Z,2.90
2018-05-01T05:03:55.471Z,3.00
2018-05-01T05:04:55.482Z,2.90
2018-05-01T05:05:55.494Z,2.90
2018-05-01T05:06:55.516Z,2.70
2018-05-01T05:07:55.517Z,2.80
2018-05-01T05:08:55.529Z,2.40
2018-05-01T05:09:55.548Z,2.50
2018-05-01T05:10:55.558Z,2.50
2018-05-01T05:11:55.568Z,2.70
2018-05-01T05:12:55.585Z,2.60
2018-05-01T05:13:55.598Z,2.30
2018-05-01T05:14:55.614Z,2.50
2018-05-01T05:15:55.630Z,2.70
2018-05-01T05:16:55.634Z,2.50
2018-05-01T05:17:55.655Z,2.60
2018-05-01T05:18:55.664Z,2.80
2018-05-01T05:19:55.685Z,2.30
2018-05-01T05:20:55.706Z,2.90
2018-05-01T05:21:55.705Z,2.50
2018-05-01T05:22:55.721Z,2.60
2018-05-01T05:23:55.725Z,2.70
2018-05-01T05:24:55.738Z,2.80
2018-05-01T05:25:55.753Z,2.70
2018-05-01T05:26:55.765Z,3.10
2018-05-01T05:27:55.781Z,3.20
2018-05-01T05:28:55.790Z,2.80
2018-05-01T05:29:55.811Z,3.20
2018-05-01T05:30:55.837Z,2.70
2018-05-01T05:31:55.828Z,3.00
2018-05-01T05:32:55.843Z,2.60
2018-05-01T05:33:55.858Z,2.80
2018-05-01T05:34:55.879Z,3.10
2018-05-01T05:35:55.884Z,3.40
2018-05-01T05:36:55.936Z,3.10
2018-05-01T05:37:55.908Z,3.30
2018-05-01T05:38:55.927Z,3.40
2018-05-01T05:39:55.936Z,3.50
2018-05-01T05:40:55.972Z,3.50
2018-05-01T05:41:55.962Z,3.00
2018-05-01T05:42:55.980Z,3.80
2018-05-01T05:43:55.993Z,3.90
2018-05-01T05:44:55.998Z,3.90
2018-05-01T05:45:56.028Z,3.60
2018-05-01T05:46:56.030Z,3.80
2018-05-01T05:47:56.048Z,4.20
2018-05-01T05:48:56.079Z,4.10
2018-05-01T05:49:56.065Z,4.00
2018-05-01T05:50:56.072Z,4.20
2018-05-01T05:51:56.086Z,4.30
2018-05-01T05:52:56.101Z,4.40
2018-05-01T05:53:56.114Z,4.30
2018-05-01T05:54:56.227Z,4.50
2018-05-01T05:55:56.138Z,4.20
2018-05-01T05:56:56.156Z,4.10
2018-05-01T05:57:56.172Z,4.70
2018-05-01T05:58:56.185Z,5.00
2018-05-01T05:59:56.191Z,4.80
2018-05-01T06:00:56.206Z,5.20
2018-05-01T06:01:56.220Z,5.20
2018-05-01T06:02:56.240Z,5.30
2018-05-01T06:03:56.249Z,5.10
2018-05-01T06:04:56.260Z,5.30
2018-05-01T06:05:56.269Z,5.60
2018-05-01T06:06:56.282Z,4.70
2018-05-01T06:07:56.294Z,5.80
2018-05-01T06:08:56.313Z,5.00
2018-05-01T06:09:56.321Z,5.70
2018-05-01T06:10:56.339Z,5.90
2018-05-01T06:11:56.350Z,5.20
2018-05-01T06:12:56.360Z,5.50
2018-05-01T06:13:56.376Z,5.90
2018-05-01T06:14:56.388Z,6.10
2018-05-01T06:15:56.399Z,5.90
2018-05-01T06:16:56.413Z,6.20
2018-05-01T06:18:56.441Z,5.80
2018-05-01T06:19:56.453Z,6.60
2018-05-01T06:20:56.465Z,7.00
2018-05-01T06:21:56.553Z,6.50
2018-05-01T06:22:56.495Z,6.60
2018-05-01T06:23:56.505Z,6.20
2018-05-01T06:24:56.519Z,7.30
2018-05-01T06:25:56.733Z,7.00
2018-05-01T06:26:56.546Z,6.90
2018-05-01T06:27:56.563Z,7.00
2018-05-01T06:28:56.570Z,7.70
2018-05-01T06:29:56.590Z,7.70
2018-05-01T06:30:56.601Z,7.70
2018-05-01T06:31:56.611Z,7.60
2018-05-01T06:32:56.646Z,7.70
2018-05-01T06:33:56.636Z,7.80
2018-05-01T06:34:56.656Z,7.50
2018-05-01T06:35:56.667Z,7.70
2018-05-01T06:36:56.748Z,7.30
2018-05-01T06:37:56.688Z,8.30
2018-05-01T06:38:56.706Z,7.10
2018-05-01T06:39:56.720Z,8.10
2018-05-01T06:40:56.728Z,7.90
2018-05-01T06:41:56.740Z,7.90
2018-05-01T06:42:56.756Z,7.10
2018-05-01T06:43:56.838Z,7.40
2018-05-01T06:44:56.780Z,7.50
2018-05-01T06:45:56.795Z,7.50
2018-05-01T06:46:56.810Z,7.70
2018-05-01T06:47:56.829Z,8.30
2018-05-01T06:48:56.835Z,8.10
2018-05-01T06:49:56.848Z,7.40
2018-05-01T06:50:56.861Z,7.80
2018-05-01T06:51:56.872Z,7.50
2018-05-01T06:52:56.886Z,7.00
2018-05-01T06:53:56.902Z,7.70
2018-05-01T06:54:56.914Z,7.40
2018-05-01T06:55:57.027Z,7.70
2018-05-01T06:56:56.938Z,8.10
2018-05-01T06:57:56.951Z,7.90
2018-05-01T06:58:57.439Z,7.80
2018-05-01T06:59:56.978Z,7.70
2018-05-01T07:00:56.997Z,8.00
2018-05-01T07:01:57.002Z,7.80
2018-05-01T07:02:57.025Z,7.80
2018-05-01T07:03:57.032Z,7.90
2018-05-01T07:04:57.042Z,8.10
2018-05-01T07:05:57.059Z,7.40
2018-05-01T07:06:57.071Z,7.10
2018-05-01T07:07:57.093Z,8.00
2018-05-01T07:08:57.096Z,7.80
2018-05-01T07:09:57.163Z,7.80
2018-05-01T07:10:57.123Z,7.20
2018-05-01T07:11:57.139Z,7.60
2018-05-01T07:12:57.153Z,6.70
2018-05-01T07:13:57.163Z,7.30
2018-05-01T07:14:57.177Z,7.00
2018-05-01T07:15:57.191Z,7.40
2018-05-01T07:16:57.205Z,6.40
2018-05-01T07:17:57.214Z,5.60
2018-05-01T07:18:57.229Z,7.70
2018-05-01T07:19:57.241Z,6.90
2018-05-01T07:20:57.257Z,7.50
2018-05-01T07:21:57.269Z,6.50
2018-05-01T07:22:57.284Z,6.70
2018-05-01T07:23:57.294Z,6.20
2018-05-01T07:24:57.308Z,6.60
2018-05-01T07:25:57.325Z,6.10
2018-05-01T07:26:57.382Z,5.90
2018-05-01T07:27:57.647Z,5.70
2018-05-01T07:28:57.571Z,6.60
2018-05-01T07:29:57.693Z,6.20
2018-05-01T07:30:57.392Z,5.90
2018-05-01T07:31:57.400Z,6.60
2018-05-01T07:32:57.415Z,6.90
2018-05-01T07:33:57.427Z,7.10
2018-05-01T07:34:57.441Z,7.20
2018-05-01T07:35:57.456Z,7.30
2018-05-01T07:36:57.475Z,7.10
2018-05-01T07:37:57.479Z,7.00
2018-05-01T07:38:57.495Z,7.40
2018-05-01T07:39:57.506Z,7.00
2018-05-01T07:40:57.518Z,7.50
2018-05-01T07:41:57.533Z,7.80
2018-05-01T07:42:57.546Z,7.60
2018-05-01T07:43:57.561Z,8.20
2018-05-01T07:44:57.571Z,8.50
2018-05-01T07:45:57.588Z,7.60
2018-05-01T07:46:57.599Z,7.80
2018-05-01T07:47:57.615Z,7.90
2018-05-01T07:48:57.629Z,8.90
2018-05-01T07:49:57.641Z,7.10
2018-05-01T07:50:57.652Z,7.30
2018-05-01T07:51:57.666Z,7.40
2018-05-01T07:52:57.695Z,8.30
2018-05-01T07:53:57.795Z,7.70
2018-05-01T07:54:57.707Z,8.00
2018-05-01T07:55:57.718Z,8.20
2018-05-01T07:56:57.732Z,7.40
2018-05-01T07:57:57.751Z,6.80
2018-05-01T07:58:57.810Z,7.00
2018-05-01T07:59:58.382Z,7.00
2018-05-01T08:00:57.801Z,7.70
2018-05-01T08:01:57.797Z,7.30
2018-05-01T08:02:57.825Z,7.00
2018-05-01T08:03:57.829Z,7.30
2018-05-01T08:04:57.839Z,7.40
2018-05-01T08:05:57.872Z,7.60
2018-05-01T08:06:57.867Z,7.40
2018-05-01T08:07:57.878Z,7.00
2018-05-01T08:08:57.897Z,6.80
2018-05-01T08:09:57.903Z,6.40
2018-05-01T08:10:57.924Z,7.70
2018-05-01T08:11:57.959Z,7.40
2018-05-01T08:12:57.946Z,7.80
2018-05-01T08:13:57.967Z,7.10
2018-05-01T08:14:57.974Z,6.80
2018-05-01T08:15:57.990Z,5.80
2018-05-01T08:16:58.268Z,6.80
2018-05-01T08:17:58.016Z,7.00
2018-05-01T08:18:58.022Z,6.80
2018-05-01T08:19:58.070Z,6.80
2018-05-01T08:20:58.047Z,7.20
2018-05-01T08:21:58.062Z,6.40
2018-05-01T08:22:58.149Z,6.30
2018-05-01T08:23:58.088Z,7.20
2018-05-01T08:24:58.100Z,6.00
2018-05-01T08:25:58.114Z,7.60
2018-05-01T08:26:58.127Z,6.90
2018-05-01T08:27:58.168Z,6.60
2018-05-01T08:28:58.154Z,6.30
2018-05-01T08:29:58.167Z,6.30
2018-05-01T08:31:58.374Z,5.60
2018-05-01T08:32:58.239Z,6.80
2018-05-01T08:33:58.225Z,6.60
2018-05-01T08:34:58.235Z,5.80
2018-05-01T08:35:58.262Z,6.30
2018-05-01T08:36:58.265Z,5.80
2018-05-01T08:37:58.275Z,5.70
2018-05-01T08:38:58.288Z,6.30
2018-05-01T08:39:58.304Z,5.80
2018-05-01T08:40:58.314Z,5.10
2018-05-01T08:41:58.330Z,5.70
2018-05-01T08:42:58.345Z,6.40
2018-05-01T08:43:58.355Z,6.00
2018-05-01T08:44:58.369Z,6.20
2018-05-01T08:45:58.391Z,6.10
2018-05-01T08:46:59.227Z,6.50
2018-05-01T08:47:58.412Z,5.90
2018-05-01T08:48:58.428Z,6.90
2018-05-01T08:49:58.438Z,6.40
2018-05-01T08:50:58.455Z,6.80
2018-05-01T08:51:58.472Z,5.70
2018-05-01T08:52:58.478Z,5.50
2018-05-01T08:53:58.497Z,6.60
2018-05-01T08:54:58.511Z,6.60
2018-05-01T08:55:58.527Z,7.00
2018-05-01T08:56:58.536Z,6.00
2018-05-01T08:57:58.549Z,6.10
2018-05-01T08:58:58.566Z,6.90
2018-05-01T08:59:58.581Z,6.30
2018-05-01T09:00:58.591Z,6.50
2018-05-01T09:01:58.607Z,6.70
2018-05-01T09:02:58.636Z,6.20
2018-05-01T09:03:59.008Z,5.80
2018-05-01T09:04:58.767Z,6.50
2018-05-01T09:05:59.053Z,6.30
2018-05-01T09:06:58.680Z,6.30
2018-05-01T09:07:58.691Z,6.30
2018-05-01T09:08:58.707Z,5.60
2018-05-01T09:09:58.726Z,6.30
2018-05-01T09:10:58.736Z,5.80
2018-05-01T09:11:58.758Z,6.90
2018-05-01T09:12:58.766Z,6.40
2018-05-01T09:13:58.778Z,6.40
2018-05-01T09:14:58.794Z,6.90
2018-05-01T09:15:58.811Z,6.20
2018-05-01T09:16:58.899Z,7.00
2018-05-01T09:17:58.918Z,5.70
2018-05-01T09:18:58.852Z,6.90
2018-05-01T09:19:58.934Z,6.50
2018-05-01T09:20:58.881Z,5.90
2018-05-01T09:21:58.890Z,5.00
2018-05-01T09:22:58.903Z,6.50
2018-05-01T09:23:58.917Z,7.10
2018-05-01T09:24:58.947Z,7.10
2018-05-01T09:25:58.954Z,6.60
2018-05-01T09:26:58.966Z,7.20
2018-05-01T09:27:58.980Z,6.60
2018-05-01T09:28:58.988Z,6.40
2018-05-01T09:29:59.009Z,6.20
2018-05-01T09:30:59.016Z,7.00
2018-05-01T09:31:59.035Z,7.10
2018-05-01T09:32:59.047Z,6.60
2018-05-01T09:33:59.065Z,5.60
2018-05-01T09:34:59.073Z,5.10
2018-05-01T09:35:59.088Z,5.60
2018-05-01T09:36:59.123Z,6.00
2018-05-01T09:37:59.115Z,5.80
2018-05-01T09:39:59.143Z,6.50
2018-05-01T09:40:59.160Z,5.60
2018-05-01T09:41:59.235Z,5.50
2018-05-01T09:42:59.208Z,5.30
2018-05-01T09:43:59.198Z,4.80
2018-05-01T09:44:59.214Z,4.90
2018-05-01T09:45:59.234Z,5.20
2018-05-01T09:46:59.260Z,5.10
2018-05-01T09:47:59.257Z,5.50
2018-05-01T09:48:59.278Z,4.70
2018-05-01T09:49:59.289Z,4.40
2018-05-01T09:50:59.302Z,5.00
2018-05-01T09:51:59.316Z,5.10
2018-05-01T09:52:59.339Z,4.90
2018-05-01T09:53:59.346Z,5.00
2018-05-01T09:54:59.369Z,4.80
2018-05-01T09:55:59.379Z,5.00
2018-05-01T09:56:59.392Z,5.50
2018-05-01T09:57:59.404Z,4.40
2018-05-01T09:58:59.473Z,4.90
2018-05-01T09:59:59.432Z,4.80
2018-05-01T10:00:59.468Z,4.30
2018-05-01T10:01:59.462Z,4.70
2018-05-01T10:02:59.478Z,4.50
2018-05-01T10:03:59.538Z,4.30
2018-05-01T10:04:59.506Z,4.50
2018-05-01T10:05:59.532Z,4.70
2018-05-01T10:06:59.544Z,4.40
2018-05-01T10:07:59.560Z,4.20
2018-05-01T10:08:59.565Z,4.50
2018-05-01T10:09:59.728Z,3.70
2018-05-01T10:10:59.770Z,4.20
2018-05-01T10:11:59.864Z,4.30
2018-05-01T10:12:59.687Z,3.90
2018-05-01T10:13:59.642Z,3.70
2018-05-01T10:14:59.656Z,4.10
2018-05-01T10:15:59.674Z,4.40
2018-05-01T10:16:59.686Z,3.80
2018-05-01T10:17:59.700Z,3.80
2018-05-01T10:18:59.712Z,3.70
2018-05-01T10:19:59.728Z,3.80
2018-05-01T10:20:59.755Z,3.70
2018-05-01T10:21:59.807Z,4.10
2018-05-01T10:22:59.770Z,3.90
2018-05-01T10:23:59.798Z,3.50
2018-05-01T10:24:59.807Z,3.70
2018-05-01T10:25:59.821Z,3.50
2018-05-01T10:26:59.831Z,3.00
2018-05-01T10:27:59.847Z,3.50
2018-05-01T10:28:59.861Z,3.20
2018-05-01T10:29:59.880Z,3.00
2018-05-01T10:30:59.897Z,3.30
2018-05-01T10:31:59.913Z,2.70
2018-05-01T10:32:59.919Z,3.10
2018-05-01T10:33:59.939Z,2.90
2018-05-01T10:34:59.952Z,3.00
2018-05-01T10:35:59.969Z,3.20
2018-05-01T10:36:59.987Z,3.20
2018-05-01T10:37:59.998Z,3.50
2018-05-01T10:39:00.122Z,3.20
2018-05-01T10:40:00.031Z,3.50
2018-05-01T10:41:00.048Z,3.30
2018-05-01T10:44:00.436Z,3.80
2018-05-01T10:45:00.139Z,2.90
2018-05-01T10:46:00.120Z,3.20
2018-05-01T10:47:00.137Z,3.20
2018-05-01T10:48:00.168Z,3.30
2018-05-01T10:49:00.166Z,3.10
2018-05-01T10:50:00.179Z,3.30
2018-05-01T10:51:00.198Z,3.60
2018-05-01T10:52:00.212Z,3.20
2018-05-01T10:53:00.229Z,3.80
2018-05-01T10:54:00.241Z,3.70
2018-05-01T10:55:00.261Z,3.00
2018-05-01T10:56:00.277Z,3.40
2018-05-01T10:57:00.287Z,3.40
2018-05-01T10:58:00.305Z,3.70
2018-05-01T10:59:00.324Z,3.50
2018-05-01T11:00:00.347Z,3.20
2018-05-01T11:01:00.345Z,3.00
2018-05-01T11:02:00.360Z,3.90
2018-05-01T11:03:00.372Z,3.40
2018-05-01T11:04:00.396Z,3.60
2018-05-01T11:05:00.411Z,3.90
2018-05-01T11:06:00.420Z,3.60
2018-05-01T11:07:00.478Z,3.40
2018-05-01T11:08:00.460Z,3.50
2018-05-01T11:09:00.491Z,3.60
2018-05-01T11:10:00.481Z,3.90
2018-05-01T11:11:00.503Z,3.80
2018-05-01T11:12:00.556Z,3.60
2018-05-01T11:13:00.526Z,3.90
2018-05-01T11:14:00.554Z,4.10
2018-05-01T11:15:00.624Z,3.90
2018-05-01T11:17:00.596Z,4.20
2018-05-01T11:18:00.608Z,4.20
2018-05-01T11:19:00.674Z,4.30
2018-05-01T11:20:00.654Z,3.90
2018-05-01T11:21:00.650Z,4.70
2018-05-01T11:22:00.667Z,4.40
2018-05-01T11:23:00.690Z,4.10
2018-05-01T11:24:00.698Z,4.30
2018-05-01T11:25:00.721Z,3.80
2018-05-01T11:26:00.826Z,3.70
2018-05-01T11:27:00.747Z,4.00
2018-05-01T11:28:00.763Z,4.10
2018-05-01T11:29:00.779Z,3.70
2018-05-01T11:30:00.790Z,3.80
2018-05-01T11:31:00.806Z,3.80
2018-05-01T11:32:00.824Z,3.50
2018-05-01T11:33:00.843Z,4.10
2018-05-01T11:34:00.862Z,3.60
2018-05-01T11:35:00.877Z,4.20
2018-05-01T11:36:00.884Z,3.70
2018-05-01T11:37:00.900Z,4.00
2018-05-01T11:38:00.927Z,4.20
2018-05-01T11:39:00.933Z,4.20
2018-05-01T11:40:00.961Z,4.00
2018-05-01T11:41:00.963Z,3.90
2018-05-01T11:42:00.988Z,3.80
2018-05-01T11:43:00.999Z,3.90
2018-05-01T11:44:01.009Z,3.80
2018-05-01T11:45:01.034Z,3.70
2018-05-01T11:46:01.040Z,4.10
2018-05-01T11:47:01.358Z,3.70
2018-05-01T11:48:01.516Z,3.70
2018-05-01T11:49:01.085Z,3.80
2018-05-01T11:50:01.118Z,3.90
2018-05-01T11:51:01.120Z,4.10
2018-05-01T11:52:01.143Z,4.20
2018-05-01T11:53:01.149Z,4.00
2018-05-01T11:54:01.183Z,3.90
2018-05-01T11:55:01.220Z,3.80
2018-05-01T11:56:01.197Z,4.50
2018-05-01T11:57:01.212Z,3.90
2018-05-01T11:58:01.236Z,3.90
2018-05-01T11:59:01.247Z,4.00
2018-05-01T12:00:01.260Z,3.80
2018-05-01T12:01:01.284Z,3.90
2018-05-01T12:02:01.305Z,3.90
2018-05-01T12:03:01.320Z,4.10
2018-05-01T12:04:01.324Z,4.10
2018-05-01T12:05:01.346Z,3.80
2018-05-01T12:06:01.354Z,3.40
2018-05-01T12:07:01.373Z,4.30
2018-05-01T12:08:01.419Z,3.90
2018-05-01T12:09:01.402Z,4.00
2018-05-01T12:10:01.421Z,3.90
2018-05-01T12:11:01.435Z,3.90
2018-05-01T12:12:01.450Z,3.70
2018-05-01T12:13:01.466Z,4.00
2018-05-01T12:14:01.487Z,4.10
2018-05-01T12:15:01.509Z,4.10
2018-05-01T12:16:01.536Z,4.00
2018-05-01T12:17:01.635Z,3.90
2018-05-01T12:20:01.613Z,3.90
2018-05-01T12:21:02.193Z,3.90
2018-05-01T12:22:01.626Z,4.00
2018-05-01T12:23:01.633Z,3.70
2018-05-01T12:24:01.643Z,4.20
2018-05-01T12:25:01.663Z,4.00
2018-05-01T12:26:01.677Z,3.70
2018-05-01T12:27:01.695Z,3.70
2018-05-01T12:28:01.724Z,3.40
2018-05-01T12:29:01.728Z,3.50
2018-05-01T12:30:01.812Z,3.90
2018-05-01T12:31:01.760Z,3.80
2018-05-01T12:32:01.783Z,3.60
2018-05-01T12:33:01.794Z,3.60
2018-05-01T12:34:01.808Z,3.80
2018-05-01T12:35:01.832Z,3.80
2018-05-01T12:36:01.849Z,3.80
2018-05-01T12:37:02.077Z,3.60
2018-05-01T12:38:01.873Z,3.30
2018-05-01T12:39:01.890Z,3.90
2018-05-01T12:40:01.906Z,3.80
2018-05-01T12:41:01.922Z,3.70
2018-05-01T12:42:01.966Z,3.60
2018-05-01T12:43:01.965Z,3.40
2018-05-01T12:44:01.975Z,3.60
2018-05-01T12:45:01.990Z,3.60
2018-05-01T12:46:02.007Z,3.60
2018-05-01T12:47:02.053Z,3.40
2018-05-01T12:48:02.049Z,3.70
2018-05-01T12:49:02.058Z,3.70
2018-05-01T12:50:02.100Z,3.20
2018-05-01T12:51:02.166Z,3.50
2018-05-01T12:52:02.722Z,3.40
2018-05-01T12:53:02.128Z,3.60
2018-05-01T12:54:02.462Z,3.50
2018-05-01T12:55:02.160Z,3.50
2018-05-01T12:56:02.176Z,3.10
2018-05-01T12:57:02.191Z,2.90
2018-05-01T12:58:02.205Z,3.00
2018-05-01T12:59:02.228Z,3.30
2018-05-01T13:00:02.247Z,2.90
2018-05-01T13:01:02.260Z,3.30
2018-05-01T13:02:02.278Z,3.40
2018-05-01T13:03:02.303Z,3.40
2018-05-01T13:04:02.314Z,3.60
2018-05-01T13:05:02.354Z,3.70
2018-05-01T13:06:02.356Z,3.50
2018-05-01T13:07:02.369Z,3.60
2018-05-01T13:08:02.386Z,3.40
2018-05-01T13:09:02.395Z,3.60
2018-05-01T13:10:02.415Z,3.60
2018-05-01T13:11:02.435Z,3.40
2018-05-01T13:12:02.450Z,3.40
2018-05-01T13:13:02.469Z,3.60
2018-05-01T13:14:02.483Z,3.10
2018-05-01T13:15:02.506Z,3.30
2018-05-01T13:16:02.514Z,3.50
2018-05-01T13:17:02.536Z,3.50
2018-05-01T13:18:02.554Z,3.20
2018-05-01T13:19:02.570Z,3.40
2018-05-01T13:20:02.585Z,3.80
2018-05-01T13:21:02.705Z,3.70
2018-05-01T13:22:02.633Z,3.20
2018-05-01T13:23:02.648Z,3.40
2018-05-01T13:24:02.660Z,2.90
2018-05-01T13:25:02.779Z,3.10
2018-05-01T13:26:02.898Z,3.00
2018-05-01T13:27:02.724Z,3.10
2018-05-01T13:28:02.736Z,2.80